KAFP

Anson County - Jeff Cloud Field Airport

Wadesboro, North Carolina, USA
METAR KAFP 241435Z AUTO 21009KT 10SM CLR 30/22 A2997 RMK AO2 T03040219
Observed Flight Rules
Jun-24 @ 14:35 UTC (23 minutes ago) Visual Flight Rules
Wind Visibility Clouds
210° at 9 knots 10 miles
  • Clear skies
Temperatures Readings
Current 30°C / 86°F
Dewpoint 22°C / 72°F
Humidity 62%
Altimeter 29.97" Hg
Pressure 1015 hPa
Elevation 92
METAR KAFP 241435Z AUTO 21009KT 10SM CLR 30/22 A2997 RMK AO2 T03040219
Observed Flight Rules
Jun-24 @ 14:35 UTC
(23 minutes ago)
VFR
Wind Visibility
210° at 9 knots 10 miles
Clouds
  • Clear skies
Temperature Dewpoint
30°C / 86°F 22°C / 72°F
Humidity Altimeter Pressure
62% 29.97" Hg 1015 hPa